Time;durP1;ratioP1;P1;durP2;ratioP2;P2;SDS_P1;SDS_P2;PMS_P1;PMS_P2;Temp;Humidity;BMP_temperature;BMP_pressure;BME280_temperature;BME280_humidity;BME280_pressure;Samples;Min_cycle;Max_cycle;Signal;HPM_P1;HPM_P2
2021/03/27 00:02:26;;;;;;;547.07;436.63;;;;;;;-144.99;63.74;52291.16;5073916;28;20231;-73
2021/03/27 00:05:00;;;;;;;571.63;449.67;;;;;;;-144.99;63.53;52301.34;5070792;28;20212;-75
2021/03/27 00:07:34;;;;;;;580.63;429.43;;;;;;;-144.99;63.34;52297.25;5065376;28;20202;-74
2021/03/27 00:10:09;;;;;;;574.50;435.77;;;;;;;-144.99;63.39;52350.25;5071392;28;20192;-77
2021/03/27 00:12:39;;;;;;;562.00;446.83;;;;;;;-144.99;62.83;52280.97;5065124;28;20202;-76
2021/03/27 00:15:17;;;;;;;580.27;423.37;;;;;;;-144.99;62.94;52278.91;5072896;28;20222;-74
2021/03/27 00:17:48;;;;;;;586.07;429.30;;;;;;;-144.99;63.13;52313.56;5068339;28;20302;-74
2021/03/27 00:20:18;;;;;;;588.30;425.87;;;;;;;-144.99;63.25;52309.50;5070085;28;20686;-76
2021/03/27 00:22:49;;;;;;;585.83;424.93;;;;;;;-144.99;63.34;52325.81;5068280;28;20658;-76
2021/03/27 00:25:20;;;;;;;586.40;427.57;;;;;;;-144.99;63.58;52325.81;5069900;28;20219;-74
2021/03/27 00:27:57;;;;;;;588.70;433.83;;;;;;;-144.99;63.82;52321.72;5066583;28;20601;-75
2021/03/27 00:30:28;;;;;;;586.03;408.73;;;;;;;-144.99;64.14;52323.75;5062416;28;20208;-74
2021/03/27 00:32:58;;;;;;;585.53;430.77;;;;;;;-144.99;64.37;52346.19;5071412;28;20200;-75
2021/03/27 00:35:30;;;;;;;594.60;441.33;;;;;;;-144.99;64.28;52372.69;5069314;28;20240;-76
2021/03/27 00:38:00;;;;;;;586.40;426.63;;;;;;;-144.99;64.55;52309.50;5068271;28;20202;-75
2021/03/27 00:40:29;;;;;;;589.00;417.67;;;;;;;-144.99;64.66;52325.81;5065295;28;20704;-75
2021/03/27 00:43:00;;;;;;;585.83;416.57;;;;;;;-144.99;64.67;52285.03;5065875;28;20681;-76
2021/03/27 00:45:30;;;;;;;577.60;417.47;;;;;;;-144.99;64.85;52297.25;5066721;28;21075;-75
2021/03/27 00:48:01;;;;;;;583.53;429.13;;;;;;;-144.99;64.95;52311.53;5066675;28;20205;-76
2021/03/27 00:50:32;;;;;;;578.03;415.60;;;;;;;-144.99;65.46;52268.72;5064615;28;20693;-74
2021/03/27 00:53:02;;;;;;;581.37;427.27;;;;;;;-144.99;65.50;52354.34;5070396;28;20193;-76
2021/03/27 00:55:35;;;;;;;572.17;404.13;;;;;;;-144.99;65.74;52350.25;5070275;28;20232;-77
2021/03/27 00:58:11;;;;;;;584.40;412.73;;;;;;;-144.99;66.00;52321.72;5067403;28;21000;-76
2021/03/27 01:00:41;;;;;;;573.17;429.93;;;;;;;-144.99;66.22;52325.81;5067405;28;20687;-75
2021/03/27 01:03:11;;;;;;;576.83;407.50;;;;;;;-144.99;66.46;52309.50;5075351;28;20710;-75
2021/03/27 01:05:38;;;;;;;582.27;403.80;;;;;;;-144.99;66.48;52354.34;5070404;28;20328;-75
2021/03/27 01:08:06;;;;;;;586.60;428.93;;;;;;;-144.99;66.48;52301.34;5069150;28;20196;-76
2021/03/27 01:10:35;;;;;;;575.47;418.33;;;;;;;-144.99;66.53;52321.72;5067759;28;21027;-76
2021/03/27 01:13:06;;;;;;;567.60;420.03;;;;;;;-144.99;66.84;52289.13;5075819;28;20274;-73
2021/03/27 01:15:34;;;;;;;586.97;416.00;;;;;;;-144.99;66.67;52352.28;5071138;28;20274;-73
2021/03/27 01:18:12;;;;;;;588.97;407.03;;;;;;;-144.99;66.80;52348.22;5069773;28;20630;-74
2021/03/27 01:20:40;;;;;;;583.47;397.37;;;;;;;-144.99;67.04;52331.91;5066080;28;20742;-73
2021/03/27 01:23:08;;;;;;;582.50;401.97;;;;;;;-144.99;67.33;52338.03;5067666;28;20674;-74
2021/03/27 01:25:35;;;;;;;584.70;387.67;;;;;;;-144.99;67.15;52317.66;5074305;28;20715;-75
2021/03/27 01:28:05;;;;;;;589.43;414.77;;;;;;;-144.99;67.23;52303.38;5070693;28;20745;-74
2021/03/27 01:30:36;;;;;;;583.33;392.10;;;;;;;-144.99;67.23;52297.25;5069047;28;21021;-75
2021/03/27 01:33:15;;;;;;;590.60;409.53;;;;;;;-144.99;67.32;52333.94;5070171;28;20680;-73
2021/03/27 01:35:45;;;;;;;589.70;410.13;;;;;;;-144.99;67.05;52313.56;5072807;28;20739;-73
2021/03/27 01:38:17;;;;;;;587.30;410.57;;;;;;;-144.99;67.27;52366.56;5070237;28;21236;-72
2021/03/27 01:40:54;;;;;;;580.97;387.23;;;;;;;-144.99;67.21;52309.50;5071196;28;20638;-72
2021/03/27 01:43:26;;;;;;;592.40;415.70;;;;;;;-144.99;67.27;52307.47;5070424;28;20657;-73
2021/03/27 01:46:15;;;;;;;586.80;398.70;;;;;;;-144.99;67.32;52305.41;5067620;28;20690;-75
2021/03/27 01:48:52;;;;;;;582.33;390.90;;;;;;;-144.99;67.31;52329.88;5061416;28;20690;-74
2021/03/27 01:51:27;;;;;;;590.03;407.23;;;;;;;-144.99;67.50;52293.19;5069430;28;20626;-73
2021/03/27 01:53:59;;;;;;;577.70;396.73;;;;;;;-144.99;67.56;52297.25;5073042;28;20648;-73
2021/03/27 01:56:34;;;;;;;585.15;389.08;;;;;;;-144.99;67.65;52303.38;4719166;28;9999754;-73
2021/03/27 01:59:09;;;;;;;583.67;391.57;;;;;;;-144.99;67.87;52331.91;5070662;28;20219;-73
2021/03/27 02:01:38;;;;;;;586.37;378.40;;;;;;;-144.99;67.67;52342.09;5063135;28;20655;-72
2021/03/27 02:04:10;;;;;;;582.23;389.67;;;;;;;-144.99;67.73;52358.41;5069880;28;20662;-73
2021/03/27 02:06:41;;;;;;;578.10;375.93;;;;;;;-144.99;67.66;52325.81;5069307;28;20606;-73
2021/03/27 02:09:14;;;;;;;583.47;395.00;;;;;;;-144.99;67.69;52340.06;5069936;28;20677;-73
2021/03/27 02:11:55;;;;;;;582.47;389.63;;;;;;;-144.99;67.70;52321.72;5069672;28;20630;-72
2021/03/27 02:14:32;;;;;;;583.50;378.40;;;;;;;-144.99;67.83;52295.22;5068289;28;20646;-71
2021/03/27 02:17:05;;;;;;;588.10;390.20;;;;;;;-144.99;67.57;52293.19;5065177;28;20691;-72
2021/03/27 02:19:51;;;;;;;581.17;383.87;;;;;;;-144.99;67.38;52340.06;5069361;28;20647;-73
2021/03/27 02:22:26;;;;;;;582.97;382.27;;;;;;;-144.99;67.09;52305.41;5072693;28;20659;-71
2021/03/27 02:25:39;;;;;;;578.67;383.17;;;;;;;-144.99;66.88;52280.97;5066107;28;20670;-71
2021/03/27 02:28:12;;;;;;;575.70;367.37;;;;;;;-144.99;66.77;52297.25;4992702;28;20635;-71
2021/03/27 02:30:44;;;;;;;589.27;393.70;;;;;;;-144.99;66.64;52338.03;5059530;28;21008;-72
2021/03/27 02:33:37;;;;;;;580.33;403.73;;;;;;;-144.99;66.46;52315.59;5069393;28;20635;-72
2021/03/27 02:36:22;;;;;;;585.37;391.13;;;;;;;-144.99;66.39;52368.59;5078036;28;20626;-73
2021/03/27 02:38:58;;;;;;;582.43;394.17;;;;;;;-144.99;66.29;52325.81;5072091;28;20680;-72
2021/03/27 02:41:55;;;;;;;586.23;399.00;;;;;;;-144.99;66.14;52329.88;5065169;28;20646;-72
2021/03/27 02:44:28;;;;;;;589.20;377.80;;;;;;;-144.99;65.88;52321.72;5063619;28;20673;-72
2021/03/27 02:47:04;;;;;;;582.20;388.23;;;;;;;-144.99;65.72;52329.88;5063115;28;20743;-72
2021/03/27 02:49:38;;;;;;;576.87;388.53;;;;;;;-144.99;65.80;52313.56;5074846;28;20745;-71
2021/03/27 02:52:17;;;;;;;583.13;414.87;;;;;;;-144.99;65.57;52329.88;5074443;28;20909;-72
2021/03/27 02:54:53;;;;;;;581.17;392.60;;;;;;;-144.99;65.43;52338.03;5062207;28;20669;-72
2021/03/27 02:57:24;;;;;;;575.53;367.23;;;;;;;-144.99;65.07;52309.50;5071582;28;20691;-72
2021/03/27 02:59:59;;;;;;;581.70;384.53;;;;;;;-144.99;65.10;52313.56;5065269;28;20619;-73
2021/03/27 03:02:33;;;;;;;585.97;393.70;;;;;;;-144.99;64.73;52317.66;5063497;28;20685;-72
2021/03/27 03:05:07;;;;;;;584.27;407.13;;;;;;;-144.99;64.38;52325.81;5068785;28;20655;-73
2021/03/27 03:07:37;;;;;;;585.97;400.73;;;;;;;-144.99;64.48;52305.41;5071391;28;21074;-73
2021/03/27 03:10:19;;;;;;;580.73;386.00;;;;;;;-144.99;64.14;52342.09;5076088;28;20631;-73
2021/03/27 03:12:56;;;;;;;579.53;387.27;;;;;;;-144.99;64.23;52342.09;5065862;28;21612;-74
2021/03/27 03:15:27;;;;;;;581.43;388.67;;;;;;;-144.99;64.25;52285.03;5066032;28;20703;-73
2021/03/27 03:18:03;;;;;;;583.80;415.53;;;;;;;-144.99;64.20;52325.81;5074908;28;20759;-73
2021/03/27 03:20:35;;;;;;;579.93;405.93;;;;;;;-144.99;64.33;52305.41;5066631;28;20653;-72
2021/03/27 03:23:06;;;;;;;585.90;412.87;;;;;;;-144.99;64.21;52336.00;5073060;28;21015;-72
2021/03/27 03:25:35;;;;;;;582.53;393.03;;;;;;;-144.99;64.14;52301.34;5067306;28;20737;-72
2021/03/27 03:28:19;;;;;;;579.30;386.40;;;;;;;-144.99;64.01;52305.41;5072080;28;20658;-71
2021/03/27 03:30:55;;;;;;;582.27;409.30;;;;;;;-144.99;64.11;52309.50;5066289;28;20760;-72
2021/03/27 03:33:38;;;;;;;580.90;393.23;;;;;;;-144.99;63.80;52325.81;5077740;28;20622;-72
2021/03/27 03:36:09;;;;;;;580.83;400.83;;;;;;;-144.99;63.63;52321.72;5073242;28;20644;-73
2021/03/27 03:38:48;;;;;;;575.13;407.10;;;;;;;-144.99;63.57;52297.25;5072215;28;20630;-72
2021/03/27 03:41:30;;;;;;;573.03;393.67;;;;;;;-144.99;63.98;52305.41;5071711;28;20684;-71
2021/03/27 03:44:00;;;;;;;577.27;409.87;;;;;;;-144.99;64.52;52321.72;5070417;28;20216;-71
2021/03/27 03:46:33;;;;;;;581.40;411.13;;;;;;;-144.99;64.93;52309.50;5074560;28;20389;-71
2021/03/27 03:49:28;;;;;;;587.53;419.67;;;;;;;-144.99;66.67;52301.34;5071825;28;20208;-70
2021/03/27 03:52:09;;;;;;;586.40;419.97;;;;;;;-144.99;69.04;52342.09;5063209;28;20254;-71
2021/03/27 03:54:48;;;;;;;592.03;422.63;;;;;;;-144.99;73.06;52333.94;5065090;28;21369;-72
2021/03/27 03:57:44;;;;;;;585.10;388.07;;;;;;;-144.99;78.63;52358.41;5070697;28;20626;-72
2021/03/27 04:00:16;;;;;;;587.03;385.37;;;;;;;-144.99;82.04;52350.25;5067564;28;20631;-74
2021/03/27 04:02:48;;;;;;;581.70;369.47;;;;;;;-144.99;83.89;52317.66;5072548;28;20687;-74
2021/03/27 04:05:22;;;;;;;585.90;380.20;;;;;;;-144.99;86.26;52366.56;5067180;28;20733;-72
2021/03/27 04:07:57;;;;;;;567.07;378.20;;;;;;;-144.99;87.75;52354.34;5070970;28;20657;-71
2021/03/27 04:10:28;;;;;;;561.70;359.13;;;;;;;-144.99;88.52;52327.84;5068412;28;20721;-72
2021/03/27 04:13:00;;;;;;;554.93;353.93;;;;;;;-144.99;90.69;52386.94;5069488;28;20673;-73
2021/03/27 04:15:32;;;;;;;553.27;331.10;;;;;;;-144.99;92.94;52346.19;5068776;28;20992;-72
2021/03/27 04:18:05;;;;;;;546.60;308.93;;;;;;;-144.99;94.32;52362.50;5065046;28;20630;-73
2021/03/27 04:20:52;;;;;;;559.40;300.40;;;;;;;-144.99;95.60;52331.91;5073099;28;20675;-73
2021/03/27 04:23:25;;;;;;;545.37;301.27;;;;;;;-144.99;96.27;52352.28;5068653;28;20701;-71
2021/03/27 04:26:07;;;;;;;543.43;281.80;;;;;;;-144.99;96.91;52360.44;5068108;28;20761;-73
2021/03/27 04:29:06;;;;;;;544.50;276.20;;;;;;;-144.99;97.61;52325.81;5070871;28;20622;-71
2021/03/27 04:31:38;;;;;;;544.43;273.40;;;;;;;-144.99;98.19;52374.72;5071543;28;20633;-72
2021/03/27 04:34:10;;;;;;;535.50;264.43;;;;;;;-144.99;97.58;52313.56;5077560;28;20672;-72
2021/03/27 04:36:43;;;;;;;542.30;247.70;;;;;;;-144.99;97.76;52350.25;5069316;28;20625;-72
2021/03/27 04:39:16;;;;;;;555.50;251.27;;;;;;;-144.99;98.00;52329.88;5075544;28;20630;-72
2021/03/27 04:41:49;;;;;;;557.33;239.00;;;;;;;-144.99;97.79;52346.19;5071473;28;20651;-72
2021/03/27 04:44:23;;;;;;;546.90;244.93;;;;;;;-144.99;98.28;52309.50;5072027;28;20696;-73
2021/03/27 04:46:54;;;;;;;558.07;235.67;;;;;;;-144.99;99.27;52321.72;5063224;28;20631;-73
2021/03/27 04:49:27;;;;;;;554.43;230.27;;;;;;;-144.99;99.87;52338.03;5074599;28;20636;-72
2021/03/27 04:52:03;;;;;;;544.20;219.17;;;;;;;-144.99;100.00;52321.72;5066713;28;20645;-73
2021/03/27 04:54:46;;;;;;;550.70;231.90;;;;;;;-144.99;100.00;52329.88;5067259;28;21289;-72
2021/03/27 04:57:30;;;;;;;548.67;225.70;;;;;;;-144.99;100.00;52313.56;5072757;28;20670;-71
2021/03/27 05:00:21;;;;;;;552.70;232.67;;;;;;;-144.99;100.00;52325.81;5071978;28;21105;-72
2021/03/27 05:02:59;;;;;;;552.20;223.53;;;;;;;-144.99;100.00;52338.03;5078215;28;20644;-70
2021/03/27 05:05:28;;;;;;;546.10;217.60;;;;;;;-144.99;100.00;52388.97;5073629;28;20652;-73
2021/03/27 05:08:01;;;;;;;547.27;211.63;;;;;;;-144.99;100.00;52368.59;5062727;28;20748;-75
2021/03/27 05:10:34;;;;;;;532.50;209.80;;;;;;;-144.99;100.00;52342.09;5070491;28;20641;-72
2021/03/27 05:13:13;;;;;;;532.60;218.17;;;;;;;-144.99;100.00;52321.72;5071518;28;20772;-73
2021/03/27 05:15:47;;;;;;;534.73;209.83;;;;;;;-144.99;100.00;52338.03;5074224;28;20662;-73
2021/03/27 05:18:35;;;;;;;545.63;233.30;;;;;;;-144.99;100.00;52309.50;5070401;28;20634;-73
2021/03/27 05:21:14;;;;;;;541.80;226.30;;;;;;;-144.99;100.00;52350.25;5065345;28;21117;-73
2021/03/27 05:23:52;;;;;;;556.33;239.07;;;;;;;-144.99;100.00;52378.78;5071283;28;20681;-75
2021/03/27 05:26:26;;;;;;;551.30;232.37;;;;;;;-144.99;100.00;52354.34;5072271;28;20677;-71
2021/03/27 05:29:10;;;;;;;546.70;221.37;;;;;;;-144.99;100.00;52386.94;5071659;28;20640;-71
2021/03/27 05:31:47;;;;;;;547.83;215.80;;;;;;;-144.99;100.00;52333.94;5073133;28;20622;-72
2021/03/27 05:34:23;;;;;;;550.97;202.90;;;;;;;-144.99;100.00;52354.34;5073330;28;20662;-72
2021/03/27 05:37:05;;;;;;;534.43;228.37;;;;;;;-144.99;100.00;52348.22;5070628;28;20986;-72
2021/03/27 05:39:37;;;;;;;507.57;222.80;;;;;;;-144.99;100.00;52342.09;5064111;28;21187;-73
2021/03/27 05:42:28;;;;;;;480.40;222.97;;;;;;;-144.99;100.00;52301.34;5074073;28;20649;-72
2021/03/27 05:45:20;;;;;;;484.40;220.53;;;;;;;-144.99;100.00;52346.19;5077404;28;20666;-72
2021/03/27 05:48:26;;;;;;;485.57;202.47;;;;;;;-144.99;100.00;52303.38;5073194;28;20637;-73
2021/03/27 05:51:14;;;;;;;490.93;217.27;;;;;;;-144.99;100.00;52382.88;5070492;28;20622;-74
2021/03/27 05:53:56;;;;;;;488.87;214.67;;;;;;;-144.99;100.00;52329.88;5069567;28;20623;-72
2021/03/27 05:57:05;;;;;;;492.47;215.37;;;;;;;-144.99;100.00;52333.94;5073282;28;20607;-74
2021/03/27 05:59:47;;;;;;;496.23;207.73;;;;;;;-144.99;100.00;52354.34;5025316;28;21168;-76
2021/03/27 06:02:35;;;;;;;481.53;192.37;;;;;;;-144.99;100.00;52313.56;5071009;28;20649;-76
2021/03/27 06:05:26;;;;;;;471.97;202.53;;;;;;;-144.99;100.00;52346.19;5070165;28;20680;-74
2021/03/27 06:08:06;;;;;;;489.83;204.13;;;;;;;-144.99;100.00;52342.09;5069530;28;20623;-76
2021/03/27 06:10:49;;;;;;;500.13;202.43;;;;;;;-144.99;100.00;52313.56;5063543;28;20758;-77
2021/03/27 06:13:31;;;;;;;501.97;196.00;;;;;;;-144.99;100.00;52319.69;5069709;28;21158;-76
2021/03/27 06:16:32;;;;;;;489.43;201.73;;;;;;;-144.99;100.00;52346.19;5065354;28;21418;-78
2021/03/27 06:19:46;;;;;;;494.90;190.17;;;;;;;-144.99;100.00;52338.03;5075973;28;20712;-77
2021/03/27 06:22:28;;;;;;;518.77;186.83;;;;;;;-144.99;100.00;52329.88;5073800;28;20856;-76
2021/03/27 06:25:27;;;;;;;515.20;200.43;;;;;;;-144.99;100.00;52321.72;5064847;28;20688;-76
2021/03/27 06:28:28;;;;;;;505.87;191.00;;;;;;;-144.99;100.00;52313.56;5076549;28;20710;-80
2021/03/27 06:31:17;;;;;;;536.40;203.63;;;;;;;-144.99;100.00;52333.94;5076066;28;20648;-76
2021/03/27 06:34:01;;;;;;;535.27;197.47;;;;;;;-144.99;100.00;52325.81;5073765;28;20742;-80
2021/03/27 06:37:11;;;;;;;517.80;196.23;;;;;;;-144.99;100.00;52313.56;5079194;28;20662;-78
2021/03/27 06:40:23;;;;;;;528.70;203.53;;;;;;;-144.99;100.00;52327.84;5070438;28;20686;-76
2021/03/27 06:43:12;;;;;;;541.57;187.97;;;;;;;-144.99;100.00;52366.56;5066613;28;20658;-73
2021/03/27 06:46:00;;;;;;;536.73;204.53;;;;;;;-144.99;100.00;52342.09;5063635;28;20669;-74
2021/03/27 06:49:05;;;;;;;544.93;204.40;;;;;;;-144.99;100.00;52315.59;5065333;28;20638;-72
2021/03/27 06:51:45;;;;;;;545.33;195.67;;;;;;;-144.99;100.00;52338.03;5043960;28;20634;-75
2021/03/27 06:54:28;;;;;;;544.77;190.63;;;;;;;-144.99;100.00;52354.34;5073433;28;20646;-76
2021/03/27 06:57:07;;;;;;;541.43;201.50;;;;;;;-144.99;100.00;52346.19;5077267;28;20639;-74
2021/03/27 07:00:02;;;;;;;544.73;206.30;;;;;;;-144.99;100.00;52333.94;5065009;28;21197;-75
2021/03/27 07:03:24;;;;;;;531.60;191.23;;;;;;;-144.99;100.00;52325.81;5067455;28;21102;-75
2021/03/27 07:06:07;;;;;;;532.83;192.50;;;;;;;-144.99;100.00;52297.25;4974266;28;20646;-73
2021/03/27 07:08:56;;;;;;;525.03;187.90;;;;;;;-144.99;99.21;52350.25;5072000;28;20705;-74
2021/03/27 07:11:40;;;;;;;536.90;195.00;;;;;;;-144.99;99.27;52297.25;5069936;28;20925;-76
2021/03/27 07:14:37;;;;;;;529.10;189.07;;;;;;;-144.99;99.21;52344.16;5074271;28;20960;-75
2021/03/27 07:17:44;;;;;;;520.67;185.77;;;;;;;-144.99;99.09;52301.34;5057125;28;20738;-74
2021/03/27 07:20:33;;;;;;;528.70;188.93;;;;;;;-144.99;98.49;52321.72;4981054;28;21030;-75
2021/03/27 07:23:31;;;;;;;525.47;176.57;;;;;;;-144.99;98.87;52313.56;4976263;28;20665;-75
2021/03/27 07:26:33;;;;;;;532.10;174.67;;;;;;;-144.99;98.67;52382.88;5059520;28;20696;-75
2021/03/27 07:29:31;;;;;;;528.90;175.33;;;;;;;-144.99;99.08;52313.56;5036977;28;20642;-75
2021/03/27 07:32:18;;;;;;;533.60;187.73;;;;;;;-144.99;99.10;52352.28;5070355;28;20619;-75
2021/03/27 07:34:56;;;;;;;540.13;189.93;;;;;;;-144.99;98.52;52301.34;5068511;28;20673;-77
2021/03/27 07:38:00;;;;;;;539.13;173.37;;;;;;;-144.99;98.18;52319.69;5074907;28;20988;-76
2021/03/27 07:40:43;;;;;;;539.77;171.73;;;;;;;-144.99;98.00;52321.72;5068129;28;20638;-74
2021/03/27 07:43:45;;;;;;;538.17;183.03;;;;;;;-144.99;97.90;52354.34;5069497;28;21032;-75
2021/03/27 07:46:27;;;;;;;541.53;184.70;;;;;;;-144.99;97.17;52297.25;5070090;28;20634;-76
2021/03/27 07:49:22;;;;;;;541.83;179.77;;;;;;;-144.99;97.58;52299.31;5066969;28;21258;-71
2021/03/27 07:52:26;;;;;;;539.87;181.07;;;;;;;-144.99;96.31;52325.81;5070737;28;20627;-71
2021/03/27 07:55:35;;;;;;;540.27;171.67;;;;;;;-144.99;95.95;52319.69;5051896;28;20659;-74
2021/03/27 07:58:20;;;;;;;540.73;185.13;;;;;;;-144.99;96.14;52305.41;5074719;28;21251;-77
2021/03/27 08:01:06;;;;;;;542.63;186.47;;;;;;;-144.99;95.98;52293.19;5078134;28;21088;-77
2021/03/27 08:04:15;;;;;;;542.87;195.07;;;;;;;-144.99;95.88;52297.25;5066507;28;20654;-72
2021/03/27 08:06:54;;;;;;;542.73;196.97;;;;;;;-144.99;95.21;52315.59;5071618;28;20622;-74
2021/03/27 08:09:38;;;;;;;541.97;184.23;;;;;;;-144.99;95.13;52321.72;5076388;28;20729;-75
2021/03/27 08:12:29;;;;;;;546.90;196.20;;;;;;;-144.99;95.97;52321.72;5062790;28;20623;-75
2021/03/27 08:15:20;;;;;;;547.47;209.30;;;;;;;-144.99;94.92;52311.53;5073524;28;21326;-75
2021/03/27 08:17:57;;;;;;;546.80;200.70;;;;;;;-144.99;93.51;52278.91;5066325;28;20627;-74
2021/03/27 08:20:54;;;;;;;549.57;202.97;;;;;;;-144.99;91.93;52293.19;5064687;28;20634;-73
2021/03/27 08:23:35;;;;;;;550.60;212.23;;;;;;;-144.99;91.52;52297.25;5068233;28;20676;-75
2021/03/27 08:26:52;;;;;;;556.87;223.80;;;;;;;-144.99;89.55;52321.72;5072043;28;20615;-76
2021/03/27 08:30:15;;;;;;;552.47;228.90;;;;;;;-144.99;90.55;52301.34;5085325;28;20631;-78
2021/03/27 08:33:07;;;;;;;553.93;219.63;;;;;;;-144.99;89.20;52333.94;5077828;28;20649;-79
2021/03/27 08:36:13;;;;;;;553.13;236.33;;;;;;;-144.99;87.86;52331.91;5077514;28;20673;-74
2021/03/27 08:38:55;;;;;;;549.77;243.43;;;;;;;-144.99;89.27;52293.19;5077535;28;20681;-77
2021/03/27 08:41:33;;;;;;;547.97;243.23;;;;;;;-144.99;88.13;52272.81;5068395;28;21140;-77
2021/03/27 08:44:22;;;;;;;542.20;239.57;;;;;;;-144.99;87.02;52289.13;5060663;28;20639;-78
2021/03/27 08:46:58;;;;;;;554.17;253.30;;;;;;;-144.99;84.98;52280.97;5081134;28;20621;-80
2021/03/27 08:50:07;;;;;;;548.13;275.03;;;;;;;-144.99;84.34;52252.44;5085942;28;20615;-79
2021/03/27 08:53:03;;;;;;;558.20;279.10;;;;;;;-144.99;84.05;52325.81;5080335;28;20623;-80
2021/03/27 08:55:50;;;;;;;562.63;274.00;;;;;;;-144.99;84.45;52248.34;5081307;28;20770;-75
2021/03/27 08:58:48;;;;;;;565.17;279.50;;;;;;;-144.99;83.00;52293.19;5074022;28;20611;-76
2021/03/27 09:01:45;;;;;;;559.70;272.17;;;;;;;-144.99;79.90;52309.50;5069459;28;20651;-76
2021/03/27 09:04:22;;;;;;;556.90;287.00;;;;;;;-144.99;78.73;52313.56;5068702;28;20677;-75
2021/03/27 09:07:09;;;;;;;564.10;306.27;;;;;;;-144.99;77.93;52293.19;5075131;28;20634;-75
2021/03/27 09:09:54;;;;;;;559.13;311.50;;;;;;;-144.99;77.16;52289.13;5074705;28;20680;-76
2021/03/27 09:12:39;;;;;;;555.63;304.97;;;;;;;-144.99;76.16;52256.50;5072502;28;20980;-76
2021/03/27 09:15:19;;;;;;;567.77;325.93;;;;;;;-144.99;74.88;52301.34;5072214;28;21047;-77
2021/03/27 09:18:18;;;;;;;562.60;326.57;;;;;;;-144.99;75.42;52336.00;5074688;28;21183;-75
2021/03/27 09:21:01;;;;;;;551.37;332.53;;;;;;;-144.99;76.24;52260.56;5073903;28;20618;-75
2021/03/27 09:23:48;;;;;;;552.57;322.37;;;;;;;-144.99;77.12;52289.13;5076425;28;21124;-73
2021/03/27 09:26:51;;;;;;;547.27;305.97;;;;;;;-144.99;77.89;52280.97;5081077;28;20641;-77
2021/03/27 09:29:44;;;;;;;543.70;305.87;;;;;;;-144.99;77.69;52252.44;5069429;28;20630;-73
2021/03/27 09:32:25;;;;;;;547.47;324.87;;;;;;;-144.99;74.53;52227.97;5072098;28;20632;-75
2021/03/27 09:35:10;;;;;;;560.60;312.23;;;;;;;-144.99;74.90;52285.03;5074770;28;20715;-77
2021/03/27 09:37:56;;;;;;;559.73;330.00;;;;;;;-144.99;75.28;52321.72;5079368;28;20627;-77
2021/03/27 09:40:27;;;;;;;549.40;339.77;;;;;;;-144.99;75.99;52323.75;5074505;28;20711;-76
2021/03/27 09:43:38;;;;;;;562.93;332.20;;;;;;;-144.99;77.74;52272.81;5073592;28;20707;-76
2021/03/27 09:46:09;;;;;;;567.30;316.87;;;;;;;-144.99;77.29;52321.72;5074863;28;20803;-76
2021/03/27 09:48:47;;;;;;;541.57;316.70;;;;;;;-144.99;78.88;52342.09;5076858;28;20756;-76
2021/03/27 09:51:24;;;;;;;561.23;294.37;;;;;;;-144.99;79.89;52278.91;5069008;28;21097;-77
2021/03/27 09:54:01;;;;;;;554.73;291.03;;;;;;;-144.99;81.01;52285.03;5072759;28;20650;-77
2021/03/27 09:56:34;;;;;;;554.80;285.97;;;;;;;-144.99;81.65;52305.41;5074745;28;20622;-77
2021/03/27 09:59:31;;;;;;;556.70;276.53;;;;;;;-144.99;82.55;52315.59;5075600;28;21228;-75
2021/03/27 10:02:07;;;;;;;559.27;256.40;;;;;;;-144.99;82.66;52333.94;5070891;28;20963;-76
2021/03/27 10:04:58;;;;;;;563.63;264.70;;;;;;;-144.99;83.71;52309.50;5073571;28;20646;-75
2021/03/27 10:07:31;;;;;;;560.37;247.10;;;;;;;-144.99;83.61;52321.72;5075413;28;20631;-77
2021/03/27 10:10:18;;;;;;;557.60;237.07;;;;;;;-144.99;84.15;52319.69;5075386;28;21006;-75
2021/03/27 10:12:58;;;;;;;560.40;244.73;;;;;;;-144.99;84.29;52317.66;5074723;28;20615;-76
2021/03/27 10:15:30;;;;;;;557.63;236.80;;;;;;;-144.99;84.17;52350.25;5069861;28;20658;-75
2021/03/27 10:18:05;;;;;;;554.87;232.80;;;;;;;-144.99;84.91;52317.66;5077643;28;20649;-75
2021/03/27 10:20:40;;;;;;;552.57;226.80;;;;;;;-144.99;85.67;52315.59;5081630;28;20765;-75
2021/03/27 10:23:19;;;;;;;554.30;232.50;;;;;;;-144.99;87.39;52333.94;5080721;28;20646;-74
2021/03/27 10:26:30;;;;;;;553.60;231.00;;;;;;;-144.99;90.20;52358.41;5074698;28;20662;-76
2021/03/27 10:29:08;;;;;;;547.67;213.57;;;;;;;-144.99;93.05;52342.09;5056571;28;20648;-78
2021/03/27 10:31:42;;;;;;;548.77;214.20;;;;;;;-144.99;100.00;52321.72;4376326;28;10000761;-79
2021/03/27 10:34:27;;;;;;;550.00;225.90;;;;;;;-144.99;100.00;52321.72;5073682;28;20232;-74
2021/03/27 10:37:02;;;;;;;542.23;215.10;;;;;;;-144.99;100.00;52317.66;5071356;28;20618;-77
2021/03/27 10:39:43;;;;;;;543.33;198.73;;;;;;;-144.99;100.00;52293.19;5073812;28;20653;-76
2021/03/27 10:42:37;;;;;;;543.43;207.93;;;;;;;-144.99;100.00;52301.34;5069620;28;20658;-73
2021/03/27 10:45:32;;;;;;;543.90;198.60;;;;;;;-144.99;100.00;52248.34;5062327;28;21240;-77
2021/03/27 10:48:21;;;;;;;541.20;197.10;;;;;;;-144.99;95.56;52191.28;5064424;28;20615;-77
2021/03/27 10:51:05;;;;;;;547.30;220.43;;;;;;;-144.99;86.97;52219.81;5071227;28;21036;-76
2021/03/27 10:53:48;;;;;;;543.90;214.43;;;;;;;-144.99;83.26;52207.59;5080141;28;20662;-76
2021/03/27 10:56:31;;;;;;;545.73;219.07;;;;;;;-144.99;81.03;52219.81;5086621;28;20684;-78
2021/03/27 10:59:26;;;;;;;546.60;223.73;;;;;;;-144.99;81.97;52276.88;5087742;28;20758;-77
2021/03/27 11:02:19;;;;;;;546.37;227.47;;;;;;;-144.99;83.02;52260.56;5080776;28;20615;-76
2021/03/27 11:05:17;;;;;;;553.97;239.03;;;;;;;-144.99;82.63;52223.88;5076871;28;20647;-80
2021/03/27 11:08:21;;;;;;;551.67;240.67;;;;;;;-144.99;80.48;52193.31;5085731;28;20631;-77
2021/03/27 11:11:10;;;;;;;550.57;237.07;;;;;;;-144.99;75.03;52066.97;5072369;28;21039;-76
2021/03/27 11:13:57;;;;;;;556.50;268.73;;;;;;;-144.99;69.34;52079.19;5071231;28;20619;-76
2021/03/27 11:16:37;;;;;;;562.30;278.87;;;;;;;-144.99;68.48;52060.84;5070540;28;20718;-74
2021/03/27 11:19:21;;;;;;;568.27;309.63;;;;;;;-144.99;65.00;52232.03;5066904;28;20637;-75
2021/03/27 11:22:29;;;;;;;571.53;318.97;;;;;;;-144.99;66.52;52248.34;5070641;28;20619;-77
2021/03/27 11:25:39;;;;;;;571.77;337.20;;;;;;;-144.99;66.02;52187.19;5067241;28;20643;-76
2021/03/27 11:28:15;;;;;;;576.47;345.67;;;;;;;-144.99;63.99;52109.75;5026022;28;20636;-79
2021/03/27 11:30:49;;;;;;;575.40;354.20;;;;;;;-144.99;62.59;52225.94;5067525;28;21295;-76
2021/03/27 11:33:29;;;;;;;586.67;392.00;;;;;;;-144.99;63.90;52248.34;5071331;28;20689;-78
2021/03/27 11:36:06;;;;;;;584.73;380.83;;;;;;;-144.99;65.50;52270.78;5063119;28;20615;-76
2021/03/27 11:38:37;;;;;;;584.07;370.70;;;;;;;-144.99;72.47;52313.56;5068352;28;21115;-76
2021/03/27 11:41:11;;;;;;;583.37;361.43;;;;;;;-144.99;74.44;52315.59;5077965;28;20996;-79
2021/03/27 11:44:11;;;;;;;576.37;341.23;;;;;;;-144.99;78.94;52295.22;5073454;28;21214;-76
2021/03/27 11:46:40;;;;;;;572.03;308.13;;;;;;;-144.99;82.08;52350.25;5070503;28;21250;-76
2021/03/27 11:49:16;;;;;;;573.20;307.97;;;;;;;-144.99;86.59;52333.94;5075959;28;20966;-75
2021/03/27 11:51:47;;;;;;;563.10;263.10;;;;;;;-144.99;90.65;52378.78;5075998;28;20614;-78